createdAt,value
2019-03-12T00:00:34.511Z,8.90
2019-03-12T00:03:05.797Z,8.03
2019-03-12T00:05:36.811Z,8.38
2019-03-12T00:08:08.853Z,8.80
2019-03-12T00:10:40.021Z,8.38
2019-03-12T00:13:10.907Z,6.15
2019-03-12T00:15:41.963Z,4.65
2019-03-12T00:18:12.926Z,4.10
2019-03-12T00:20:44.083Z,4.50
2019-03-12T00:23:15.142Z,4.92
2019-03-12T00:25:46.117Z,4.65
2019-03-12T00:28:17.096Z,6.08
2019-03-12T00:30:48.131Z,5.90
2019-03-12T00:33:19.307Z,10.75
2019-03-12T00:35:52.805Z,10.72
2019-03-12T00:38:23.786Z,16.95
2019-03-12T00:40:54.984Z,14.38
2019-03-12T00:43:27.512Z,10.53
2019-03-12T00:45:58.799Z,9.98
2019-03-12T00:48:31.504Z,11.18
2019-03-12T00:51:02.676Z,10.70
2019-03-12T00:53:34.788Z,11.40
2019-03-12T00:56:06.007Z,9.33
2019-03-12T00:58:36.969Z,7.75
2019-03-12T01:01:08.164Z,6.78
2019-03-12T01:03:39.176Z,7.83
2019-03-12T01:06:10.201Z,7.03
2019-03-12T01:08:41.104Z,7.97
2019-03-12T01:11:13.812Z,7.75
2019-03-12T01:13:45.671Z,7.85
2019-03-12T01:16:16.738Z,8.13
2019-03-12T01:18:47.603Z,7.70
2019-03-12T01:21:18.630Z,8.48
2019-03-12T01:23:49.771Z,6.95
2019-03-12T01:26:22.766Z,7.05
2019-03-12T01:28:53.820Z,6.87
2019-03-12T01:31:25.047Z,6.92
2019-03-12T01:33:56.207Z,8.65
2019-03-12T01:36:27.199Z,8.28
2019-03-12T01:38:58.184Z,7.58
2019-03-12T01:41:29.115Z,9.78
2019-03-12T01:44:00.169Z,10.13
2019-03-12T01:46:32.313Z,9.13
2019-03-12T01:49:03.335Z,10.10
2019-03-12T01:51:34.401Z,8.30
2019-03-12T01:54:05.353Z,8.05
2019-03-12T01:56:36.450Z,7.60
2019-03-12T01:59:07.338Z,6.75
2019-03-12T02:01:38.399Z,7.62
2019-03-12T02:04:09.440Z,8.23
2019-03-12T02:06:41.439Z,5.80
2019-03-12T02:09:12.411Z,5.67
2019-03-12T02:11:43.509Z,5.33
2019-03-12T02:14:26.483Z,4.47
2019-03-12T02:16:57.440Z,4.37
2019-03-12T02:19:28.377Z,4.40
2019-03-12T02:21:59.557Z,4.47
2019-03-12T02:24:30.442Z,4.70
2019-03-12T02:27:01.470Z,5.00
2019-03-12T02:29:32.407Z,5.67
2019-03-12T02:32:04.572Z,5.47
2019-03-12T02:34:35.562Z,5.87
2019-03-12T02:37:08.079Z,7.15
2019-03-12T02:39:39.059Z,7.28
2019-03-12T02:42:12.669Z,6.15
2019-03-12T02:44:42.629Z,5.40
2019-03-12T02:47:13.603Z,6.30
2019-03-12T02:49:44.505Z,4.90
2019-03-12T02:52:15.409Z,4.42
2019-03-12T02:54:46.381Z,3.85
2019-03-12T02:57:17.611Z,3.80
2019-03-12T02:59:48.636Z,3.50
2019-03-12T03:02:19.566Z,3.40
2019-03-12T03:04:54.064Z,3.87
2019-03-12T03:07:24.886Z,4.45
2019-03-12T03:09:55.760Z,5.17
2019-03-12T03:12:26.780Z,5.20
2019-03-12T03:14:59.299Z,5.30
2019-03-12T03:17:30.404Z,5.50
2019-03-12T03:20:01.394Z,4.70
2019-03-12T03:22:33.521Z,4.97
2019-03-12T03:25:06.204Z,5.30
2019-03-12T03:27:37.243Z,4.60
2019-03-12T03:30:11.531Z,5.72
2019-03-12T03:32:43.609Z,6.10
2019-03-12T03:35:14.893Z,5.40
2019-03-12T03:37:45.981Z,8.30
2019-03-12T03:40:24.555Z,11.97
2019-03-12T03:42:55.714Z,13.40
2019-03-12T03:45:28.808Z,12.88
2019-03-12T03:48:00.011Z,9.28
2019-03-12T03:50:31.035Z,8.13
2019-03-12T03:53:03.661Z,11.20
2019-03-12T03:55:34.835Z,10.95
2019-03-12T03:58:07.111Z,9.48
2019-03-12T04:00:38.013Z,10.25
2019-03-12T04:03:11.108Z,12.47
2019-03-12T04:05:42.370Z,11.68
2019-03-12T04:08:13.660Z,8.48
2019-03-12T04:10:44.599Z,7.87
2019-03-12T04:13:15.555Z,11.05
2019-03-12T04:15:46.577Z,9.65
2019-03-12T04:18:17.616Z,9.50
2019-03-12T04:20:48.600Z,6.90
2019-03-12T04:23:19.774Z,7.28
2019-03-12T04:25:52.349Z,5.95
2019-03-12T04:28:23.398Z,6.65
2019-03-12T04:30:54.519Z,7.55
2019-03-12T04:33:54.707Z,7.28
2019-03-12T04:36:25.786Z,6.65
2019-03-12T04:38:56.839Z,7.03
2019-03-12T04:41:27.853Z,7.28
2019-03-12T04:43:58.869Z,7.55
2019-03-12T04:46:29.787Z,7.25
2019-03-12T04:49:01.795Z,8.68
2019-03-12T04:51:33.048Z,5.90
2019-03-12T04:54:03.973Z,5.58
2019-03-12T04:56:34.922Z,5.05
2019-03-12T04:59:05.926Z,5.40
2019-03-12T05:01:36.887Z,6.62
2019-03-12T05:04:07.903Z,7.37
2019-03-12T05:06:41.980Z,8.55
2019-03-12T05:09:12.961Z,9.65
2019-03-12T05:11:43.995Z,11.88
2019-03-12T05:14:24.410Z,12.00
2019-03-12T05:16:58.355Z,11.05
2019-03-12T05:19:32.907Z,11.12
2019-03-12T05:22:04.002Z,12.63
2019-03-12T05:24:35.053Z,12.35
2019-03-12T05:27:06.138Z,10.88
2019-03-12T05:29:37.338Z,8.85
2019-03-12T05:32:08.321Z,8.55
2019-03-12T05:34:39.340Z,8.93
2019-03-12T05:37:11.400Z,7.12
2019-03-12T05:39:42.324Z,8.80
2019-03-12T05:42:14.918Z,7.75
2019-03-12T05:44:45.969Z,7.90
2019-03-12T05:47:16.885Z,9.08
2019-03-12T05:49:47.869Z,7.72
2019-03-12T05:52:18.873Z,7.42
2019-03-12T05:54:50.295Z,7.70
2019-03-12T05:57:24.050Z,8.10
2019-03-12T05:59:55.140Z,8.68
2019-03-12T06:02:26.180Z,9.88
2019-03-12T06:04:57.372Z,10.60
2019-03-12T06:07:28.444Z,11.80
2019-03-12T06:09:59.645Z,11.08
2019-03-12T06:12:30.779Z,9.63
2019-03-12T06:15:01.906Z,9.18
2019-03-12T06:17:33.509Z,8.78
2019-03-12T06:20:07.650Z,8.68
2019-03-12T06:22:38.632Z,9.98
2019-03-12T06:25:09.626Z,10.13
2019-03-12T06:27:40.820Z,7.03
2019-03-12T06:30:16.593Z,6.95
2019-03-12T06:32:49.338Z,6.92
2019-03-12T06:35:26.352Z,5.90
2019-03-12T06:37:59.102Z,6.15
2019-03-12T06:40:47.010Z,6.45
2019-03-12T06:43:19.705Z,6.40
2019-03-12T06:45:52.434Z,6.28
2019-03-12T06:48:28.690Z,5.85
2019-03-12T06:51:04.226Z,6.33
2019-03-12T06:53:38.156Z,6.95
2019-03-12T06:56:12.978Z,7.77
2019-03-12T06:58:48.521Z,8.55
2019-03-12T07:01:21.445Z,10.05
2019-03-12T07:03:54.317Z,10.63
2019-03-12T07:06:29.596Z,11.70
2019-03-12T07:09:11.208Z,13.72
2019-03-12T07:11:59.256Z,13.45
2019-03-12T07:14:49.125Z,12.73
2019-03-12T07:17:27.707Z,14.07
2019-03-12T07:20:16.993Z,12.30
2019-03-12T07:23:07.786Z,15.10
2019-03-12T07:25:40.479Z,11.83
2019-03-12T07:28:29.831Z,11.70
2019-03-12T07:31:05.371Z,11.63
2019-03-12T07:33:40.677Z,12.75
2019-03-12T07:36:13.487Z,11.45
2019-03-12T07:39:02.699Z,12.37
2019-03-12T07:41:45.873Z,9.08
2019-03-12T07:44:18.592Z,8.60
2019-03-12T07:46:51.256Z,9.70
2019-03-12T07:49:32.740Z,9.15
2019-03-12T07:52:08.769Z,9.20
2019-03-12T07:54:50.262Z,9.13
2019-03-12T07:57:26.632Z,9.28
2019-03-12T08:00:15.720Z,9.23
2019-03-12T08:02:54.414Z,8.73
2019-03-12T08:05:33.276Z,7.62
2019-03-12T08:08:08.669Z,7.92
2019-03-12T08:10:47.674Z,7.95
2019-03-12T08:13:20.315Z,8.25
2019-03-12T08:15:52.928Z,6.90
2019-03-12T08:18:25.628Z,9.60
2019-03-12T08:20:58.359Z,11.80
2019-03-12T08:23:38.487Z,10.40
2019-03-12T08:26:17.081Z,10.38
2019-03-12T08:28:52.728Z,11.68
2019-03-12T08:31:41.970Z,10.95
2019-03-12T08:34:14.773Z,10.25
2019-03-12T08:37:03.853Z,9.90
2019-03-12T08:39:42.361Z,10.00
2019-03-12T08:42:17.824Z,9.13
2019-03-12T08:45:02.207Z,10.00
2019-03-12T08:47:53.281Z,10.18
2019-03-12T08:50:40.827Z,10.50
2019-03-12T08:53:17.046Z,11.83
2019-03-12T08:55:49.750Z,12.43
2019-03-12T08:58:22.761Z,11.73
2019-03-12T09:00:56.666Z,8.13
2019-03-12T09:03:45.427Z,7.67
2019-03-12T09:06:18.179Z,9.00
2019-03-12T09:09:00.170Z,7.67
2019-03-12T09:11:33.133Z,5.85
2019-03-12T09:14:21.767Z,6.00
2019-03-12T09:17:00.482Z,6.85
2019-03-12T09:19:49.238Z,6.30
2019-03-12T09:22:40.032Z,6.42
2019-03-12T09:25:21.456Z,5.78
2019-03-12T09:27:56.029Z,6.05
2019-03-12T09:30:34.407Z,6.45
2019-03-12T09:33:07.280Z,4.65
2019-03-12T09:35:45.396Z,4.53
2019-03-12T09:38:18.005Z,6.17
2019-03-12T09:40:53.258Z,5.25
2019-03-12T09:43:26.008Z,4.92
2019-03-12T09:46:01.324Z,5.80
2019-03-12T09:48:33.989Z,3.90
2019-03-12T09:51:12.798Z,4.60
2019-03-12T09:53:45.449Z,4.00
2019-03-12T09:56:36.833Z,4.05
2019-03-12T09:59:18.289Z,4.47
2019-03-12T10:02:00.152Z,5.62
2019-03-12T10:04:38.505Z,5.80
2019-03-12T10:07:19.980Z,6.62
2019-03-12T10:09:52.539Z,5.42
2019-03-12T10:12:25.231Z,4.92
2019-03-12T10:15:09.732Z,4.58
2019-03-12T10:17:58.699Z,5.42
2019-03-12T10:20:34.024Z,4.90
2019-03-12T10:23:15.747Z,3.80
2019-03-12T10:25:48.313Z,3.37
2019-03-12T10:28:23.632Z,3.77
2019-03-12T10:30:59.403Z,3.02
2019-03-12T10:33:34.595Z,2.55
2019-03-12T10:39:31.845Z,2.77
2019-03-12T10:42:07.174Z,2.62
2019-03-12T10:44:51.943Z,2.33
2019-03-12T10:47:41.651Z,2.70
2019-03-12T10:50:18.115Z,2.52
2019-03-12T10:52:49.275Z,2.87
2019-03-12T10:55:20.243Z,2.10
2019-03-12T10:57:51.121Z,2.25
2019-03-12T11:00:22.498Z,2.30
2019-03-12T11:02:53.514Z,2.15
2019-03-12T11:05:24.508Z,1.90
2019-03-12T11:07:55.775Z,1.80
2019-03-12T11:10:26.895Z,2.25
2019-03-12T11:12:57.853Z,2.87
2019-03-12T11:15:30.010Z,2.42
2019-03-12T11:18:01.341Z,2.50
2019-03-12T11:20:32.361Z,2.58
2019-03-12T11:23:03.447Z,2.67
2019-03-12T11:25:34.971Z,2.42
2019-03-12T11:28:06.089Z,2.75
2019-03-12T11:30:37.176Z,3.12
2019-03-12T11:33:08.318Z,3.42
2019-03-12T11:35:39.844Z,3.58
2019-03-12T11:38:11.280Z,3.85
2019-03-12T11:40:42.474Z,3.10
2019-03-12T11:43:13.530Z,3.50
2019-03-12T11:45:44.795Z,4.10
2019-03-12T11:48:16.013Z,3.60
2019-03-12T11:50:47.084Z,3.45
2019-03-12T11:53:18.122Z,3.70
2019-03-12T11:55:49.141Z,3.92
2019-03-12T11:58:20.221Z,3.85
2019-03-12T12:00:52.806Z,4.47
2019-03-12T12:03:23.971Z,3.25
2019-03-12T12:05:56.026Z,3.45
2019-03-12T12:08:27.258Z,3.70
2019-03-12T12:11:09.044Z,3.05
2019-03-12T12:13:40.063Z,3.15
2019-03-12T12:16:11.010Z,2.80
2019-03-12T12:18:42.108Z,2.67
2019-03-12T12:21:13.155Z,2.60
2019-03-12T12:23:44.145Z,3.00
2019-03-12T12:26:15.156Z,2.35
2019-03-12T12:28:46.121Z,3.25
2019-03-12T12:31:17.355Z,3.42
2019-03-12T12:33:48.162Z,3.27
2019-03-12T12:36:19.139Z,2.95
2019-03-12T12:38:50.062Z,3.15
2019-03-12T12:41:21.170Z,3.65
2019-03-12T12:43:52.324Z,4.05
2019-03-12T12:46:23.348Z,3.77
2019-03-12T12:48:54.549Z,3.98
2019-03-12T12:51:25.647Z,3.60
2019-03-12T12:53:57.821Z,3.67
2019-03-12T12:56:28.844Z,3.50
2019-03-12T12:58:59.834Z,3.20
2019-03-12T13:01:30.795Z,3.62
2019-03-12T13:04:01.963Z,3.55
2019-03-12T13:06:34.201Z,3.37
2019-03-12T13:09:06.272Z,3.85
2019-03-12T13:11:38.878Z,3.10
2019-03-12T13:14:09.989Z,3.70
2019-03-12T13:16:40.934Z,4.28
2019-03-12T13:19:11.883Z,4.70
2019-03-12T13:21:43.064Z,3.70
2019-03-12T13:24:14.112Z,3.75
2019-03-12T13:26:46.103Z,4.17
2019-03-12T13:29:17.117Z,4.47
2019-03-12T13:31:49.357Z,4.12
2019-03-12T13:34:20.295Z,4.00
2019-03-12T13:36:56.118Z,4.08
2019-03-12T13:39:27.585Z,4.20
2019-03-12T13:41:58.792Z,3.87
2019-03-12T13:44:29.974Z,4.30
2019-03-12T13:47:00.986Z,4.62
2019-03-12T13:49:32.086Z,4.75
2019-03-12T13:52:03.280Z,5.05
2019-03-12T13:54:34.394Z,4.95
2019-03-12T13:57:05.546Z,5.08
2019-03-12T13:59:36.603Z,5.15
2019-03-12T14:02:07.680Z,5.00
2019-03-12T14:04:38.787Z,5.20
2019-03-12T14:07:09.920Z,4.30
2019-03-12T14:09:40.826Z,4.85
2019-03-12T14:12:11.883Z,5.15
2019-03-12T14:14:42.958Z,4.45
2019-03-12T14:17:14.097Z,4.12
2019-03-12T14:19:45.075Z,4.33
2019-03-12T14:22:16.160Z,3.72
2019-03-12T14:24:47.309Z,4.45
2019-03-12T14:27:19.358Z,4.35
2019-03-12T14:29:50.339Z,4.70
2019-03-12T14:32:21.468Z,4.62
2019-03-12T14:34:52.326Z,4.40
2019-03-12T14:37:23.878Z,4.33
2019-03-12T14:39:55.175Z,4.60
2019-03-12T14:42:26.254Z,5.12
2019-03-12T14:44:57.265Z,6.65
2019-03-12T14:47:28.509Z,6.08
2019-03-12T14:49:59.812Z,5.53
2019-03-12T14:52:30.936Z,4.33
2019-03-12T14:55:01.821Z,4.55
2019-03-12T14:57:32.976Z,4.00
2019-03-12T15:00:07.793Z,4.97
2019-03-12T15:02:38.988Z,5.30
2019-03-12T15:05:10.167Z,5.72
2019-03-12T15:07:41.273Z,5.90
2019-03-12T15:10:12.469Z,5.20
2019-03-12T15:12:43.799Z,5.90
2019-03-12T15:15:15.136Z,6.58
2019-03-12T15:17:46.234Z,5.60
2019-03-12T15:20:17.246Z,5.55
2019-03-12T15:22:48.475Z,4.70
2019-03-12T15:25:19.498Z,5.20
2019-03-12T15:27:50.695Z,5.62
2019-03-12T15:30:27.275Z,5.37
2019-03-12T15:32:58.208Z,5.85
2019-03-12T15:35:29.297Z,6.05
2019-03-12T15:38:00.621Z,6.20
2019-03-12T15:40:31.582Z,6.33
2019-03-12T15:43:02.647Z,6.85
2019-03-12T15:45:33.664Z,5.78
2019-03-12T15:48:04.630Z,5.70
2019-03-12T15:50:35.707Z,5.90
2019-03-12T15:53:07.360Z,5.37
2019-03-12T15:55:38.414Z,5.85
2019-03-12T15:58:09.560Z,6.87
2019-03-12T16:00:40.621Z,6.40
2019-03-12T16:03:11.659Z,6.55
2019-03-12T16:05:42.795Z,5.65
2019-03-12T16:08:13.839Z,5.50
2019-03-12T16:10:57.150Z,6.10
2019-03-12T16:13:17.665Z,5.90
2019-03-12T16:15:48.894Z,6.28
2019-03-12T16:18:20.028Z,6.85
2019-03-12T16:20:51.350Z,7.87
2019-03-12T16:23:22.661Z,8.95
2019-03-12T16:25:53.959Z,11.57
2019-03-12T16:28:25.281Z,20.15
2019-03-12T16:30:57.607Z,17.57
2019-03-12T16:33:28.955Z,20.57
2019-03-12T16:36:00.227Z,25.00
2019-03-12T16:38:31.644Z,26.48
2019-03-12T16:41:03.101Z,26.57
2019-03-12T16:43:34.489Z,26.35
2019-03-12T16:46:05.794Z,27.65
2019-03-12T16:48:38.566Z,30.57
2019-03-12T16:51:09.943Z,29.90
2019-03-12T16:53:41.011Z,27.00
2019-03-12T16:56:12.049Z,27.75
2019-03-12T16:58:43.186Z,29.50
2019-03-12T17:01:15.523Z,33.18
2019-03-12T17:03:46.862Z,28.62
2019-03-12T17:06:18.184Z,29.82
2019-03-12T17:08:50.018Z,30.60
2019-03-12T17:11:21.331Z,28.67
2019-03-12T17:13:52.758Z,22.65
2019-03-12T17:16:24.190Z,21.48
2019-03-12T17:18:55.669Z,24.18
2019-03-12T17:21:27.020Z,21.25
2019-03-12T17:23:58.467Z,21.95
2019-03-12T17:26:30.596Z,23.30
2019-03-12T17:29:02.278Z,24.72
2019-03-12T17:31:33.685Z,26.15
2019-03-12T17:34:05.379Z,30.30
2019-03-12T17:36:36.948Z,28.45
2019-03-12T17:39:10.036Z,29.92
2019-03-12T17:41:43.028Z,32.70
2019-03-12T17:44:14.571Z,31.68
2019-03-12T17:46:45.874Z,30.40
2019-03-12T17:49:19.278Z,30.40
2019-03-12T17:51:50.571Z,34.35
2019-03-12T17:54:22.063Z,34.48
2019-03-12T17:56:53.750Z,40.50
2019-03-12T17:59:28.499Z,39.70
2019-03-12T18:02:00.165Z,45.23
2019-03-12T18:04:32.717Z,39.98
2019-03-12T18:07:05.662Z,40.73
2019-03-12T18:09:51.312Z,44.73
2019-03-12T18:12:41.545Z,52.93
2019-03-12T18:15:19.235Z,53.60
2019-03-12T18:17:50.752Z,55.43
2019-03-12T18:20:23.034Z,55.33
2019-03-12T18:22:55.364Z,60.58
2019-03-12T18:25:29.132Z,59.42
2019-03-12T18:28:00.759Z,60.98
2019-03-12T18:30:32.092Z,61.70
2019-03-12T18:33:03.491Z,55.70
2019-03-12T18:35:34.971Z,50.75
2019-03-12T18:38:06.420Z,64.82
2019-03-12T18:40:37.877Z,69.85
2019-03-12T18:43:09.197Z,68.12
2019-03-12T18:45:40.567Z,79.00
2019-03-12T18:48:12.229Z,86.63
2019-03-12T18:50:43.753Z,54.25
2019-03-12T18:53:17.938Z,48.68
2019-03-12T18:55:52.433Z,45.78
2019-03-12T18:58:23.758Z,39.60
2019-03-12T19:00:58.126Z,37.60
2019-03-12T19:03:29.482Z,52.80
2019-03-12T19:06:00.884Z,48.20
2019-03-12T19:08:32.258Z,49.65
2019-03-12T19:11:03.779Z,51.20
2019-03-12T19:13:35.480Z,40.17
2019-03-12T19:16:07.130Z,37.93
2019-03-12T19:18:40.423Z,33.40
2019-03-12T19:21:13.025Z,48.10
2019-03-12T19:23:44.440Z,45.08
2019-03-12T19:26:15.883Z,39.20
2019-03-12T19:28:47.251Z,37.10
2019-03-12T19:31:23.207Z,38.48
2019-03-12T19:33:55.373Z,35.43
2019-03-12T19:36:26.955Z,38.85
2019-03-12T19:38:58.642Z,39.05
2019-03-12T19:41:30.330Z,45.52
2019-03-12T19:44:02.637Z,45.38
2019-03-12T19:46:34.292Z,43.28
2019-03-12T19:49:05.905Z,44.35
2019-03-12T19:51:37.322Z,44.35
2019-03-12T19:54:08.763Z,44.48
2019-03-12T19:56:40.258Z,38.73
2019-03-12T19:59:12.938Z,37.08
2019-03-12T20:01:44.829Z,49.10
2019-03-12T20:04:16.190Z,51.05
2019-03-12T20:06:47.815Z,52.65
2019-03-12T20:09:22.357Z,51.30
2019-03-12T20:12:11.690Z,48.85
2019-03-12T20:14:58.196Z,51.35
2019-03-12T20:18:09.096Z,49.30
2019-03-12T20:21:10.879Z,49.67
2019-03-12T20:24:19.040Z,48.80
2019-03-12T20:27:10.156Z,47.75
2019-03-12T20:29:47.943Z,47.62
2019-03-12T20:32:55.817Z,47.93
2019-03-12T20:35:56.048Z,46.83
2019-03-12T20:39:05.285Z,46.48
2019-03-12T20:41:56.814Z,51.23
2019-03-12T20:44:52.887Z,49.75
2019-03-12T20:47:53.640Z,49.77
2019-03-12T20:50:48.024Z,50.70
2019-03-12T20:53:31.251Z,51.42
2019-03-12T20:56:37.512Z,48.80
2019-03-12T20:59:45.528Z,47.43
2019-03-12T21:02:34.815Z,52.13
2019-03-12T21:05:25.467Z,52.80
2019-03-12T21:08:21.546Z,53.58
2019-03-12T21:11:26.508Z,51.75
2019-03-12T21:14:35.993Z,49.95
2019-03-12T21:17:26.547Z,52.43
2019-03-12T21:20:24.990Z,52.05
2019-03-12T21:23:02.106Z,49.33
2019-03-12T21:25:39.520Z,47.13
2019-03-12T21:28:38.189Z,44.38
2019-03-12T21:31:10.470Z,40.35
2019-03-12T21:33:43.861Z,43.65
2019-03-12T21:36:15.181Z,40.85
2019-03-12T21:38:46.456Z,37.40
2019-03-12T21:41:17.536Z,37.88
2019-03-12T21:43:48.770Z,37.65
2019-03-12T21:46:19.991Z,34.53
2019-03-12T21:48:51.496Z,40.15
2019-03-12T21:51:22.696Z,40.52
2019-03-12T21:53:53.753Z,44.10
2019-03-12T21:56:24.950Z,43.70
2019-03-12T21:58:56.065Z,43.15
2019-03-12T22:01:27.546Z,43.08
2019-03-12T22:04:02.886Z,46.45
2019-03-12T22:06:34.040Z,41.73
2019-03-12T22:09:05.601Z,40.28
2019-03-12T22:11:38.466Z,40.33
2019-03-12T22:14:09.999Z,36.60
2019-03-12T22:16:43.857Z,35.68
2019-03-12T22:19:16.075Z,34.40
2019-03-12T22:21:51.571Z,36.53
2019-03-12T22:24:22.789Z,30.05
2019-03-12T22:26:53.965Z,27.37
2019-03-12T22:29:25.070Z,29.72
2019-03-12T22:31:56.172Z,29.80
2019-03-12T22:34:30.029Z,29.98
2019-03-12T22:37:00.135Z,28.75
2019-03-12T22:39:31.356Z,26.90
2019-03-12T22:42:02.559Z,27.62
2019-03-12T22:44:33.663Z,27.22
2019-03-12T22:47:04.689Z,28.02
2019-03-12T22:49:35.737Z,29.00
2019-03-12T22:52:06.877Z,29.87
2019-03-12T22:54:37.976Z,33.23
2019-03-12T22:57:09.105Z,32.15
2019-03-12T22:59:58.181Z,34.25
2019-03-12T23:02:49.632Z,31.00
2019-03-12T23:05:38.735Z,28.83
2019-03-12T23:08:28.045Z,27.45
2019-03-12T23:11:00.765Z,25.12
2019-03-12T23:13:32.279Z,26.20
2019-03-12T23:16:04.233Z,23.45
2019-03-12T23:18:35.625Z,23.10
2019-03-12T23:21:07.000Z,21.48
2019-03-12T23:23:38.719Z,21.52
2019-03-12T23:26:10.072Z,22.17
2019-03-12T23:28:41.208Z,19.87
2019-03-12T23:31:12.360Z,20.43
2019-03-12T23:33:43.759Z,20.17
2019-03-12T23:36:14.838Z,20.85
2019-03-12T23:38:46.054Z,18.87
2019-03-12T23:41:17.238Z,16.95
2019-03-12T23:43:48.426Z,17.98
2019-03-12T23:46:19.539Z,17.40
2019-03-12T23:48:50.722Z,16.23
2019-03-12T23:51:21.816Z,16.82
2019-03-12T23:53:53.099Z,17.70
2019-03-12T23:56:24.316Z,16.87
2019-03-12T23:58:55.405Z,16.73
